createdAt,value
2018-10-05T00:02:22.942Z,99.90
2018-10-05T00:04:50.554Z,99.90
2018-10-05T00:07:19.888Z,99.90
2018-10-05T00:09:47.980Z,99.90
2018-10-05T00:12:15.536Z,99.90
2018-10-05T00:14:44.465Z,99.90
2018-10-05T00:17:11.981Z,99.90
2018-10-05T00:19:39.566Z,99.90
2018-10-05T00:22:07.091Z,99.90
2018-10-05T00:24:34.761Z,99.90
2018-10-05T00:27:04.238Z,99.90
2018-10-05T00:29:31.746Z,99.90
2018-10-05T00:31:59.502Z,99.90
2018-10-05T00:34:27.068Z,99.90
2018-10-05T00:36:54.632Z,99.90
2018-10-05T00:39:22.174Z,99.90
2018-10-05T00:41:51.262Z,99.90
2018-10-05T00:44:18.863Z,99.90
2018-10-05T00:46:46.406Z,99.90
2018-10-05T00:49:14.853Z,99.90
2018-10-05T00:51:42.420Z,99.90
2018-10-05T00:54:10.198Z,99.90
2018-10-05T00:56:37.755Z,99.90
2018-10-05T00:59:05.312Z,99.90
2018-10-05T01:01:32.892Z,99.90
2018-10-05T01:04:00.606Z,99.90
2018-10-05T01:06:28.227Z,99.90
2018-10-05T01:08:55.844Z,99.90
2018-10-05T01:11:23.394Z,99.90
2018-10-05T01:13:50.976Z,99.90
2018-10-05T01:16:18.545Z,99.90
2018-10-05T01:18:46.062Z,99.90
2018-10-05T01:21:14.208Z,99.90
2018-10-05T01:23:41.921Z,99.90
2018-10-05T01:26:09.398Z,99.90
2018-10-05T01:28:36.929Z,99.90
2018-10-05T01:31:04.517Z,99.90
2018-10-05T01:33:32.033Z,99.90
2018-10-05T01:35:59.927Z,99.90
2018-10-05T01:38:27.493Z,99.90
2018-10-05T01:40:55.063Z,99.90
2018-10-05T01:43:22.644Z,99.90
2018-10-05T01:45:50.347Z,99.90
2018-10-05T01:48:18.767Z,99.90
2018-10-05T01:50:46.281Z,99.90
2018-10-05T01:53:14.967Z,99.90
2018-10-05T01:55:44.977Z,99.90
2018-10-05T01:58:12.535Z,99.90
2018-10-05T02:00:40.061Z,99.90
2018-10-05T02:03:07.977Z,99.90
2018-10-05T02:05:35.603Z,99.90
2018-10-05T02:08:03.109Z,99.90
2018-10-05T02:10:30.659Z,99.90
2018-10-05T02:12:58.155Z,99.90
2018-10-05T02:15:25.670Z,99.90
2018-10-05T02:17:53.211Z,99.90
2018-10-05T02:20:21.703Z,99.90
2018-10-05T02:22:50.661Z,99.90
2018-10-05T02:25:19.431Z,99.90
2018-10-05T02:27:46.988Z,99.90
2018-10-05T02:30:15.853Z,99.90
2018-10-05T02:32:43.360Z,99.90
2018-10-05T02:35:10.869Z,99.90
2018-10-05T02:37:38.609Z,99.90
2018-10-05T02:40:08.208Z,99.90
2018-10-05T02:42:35.713Z,99.90
2018-10-05T02:45:03.289Z,99.90
2018-10-05T02:47:30.975Z,99.90
2018-10-05T02:49:58.541Z,99.90
2018-10-05T02:52:26.113Z,99.90
2018-10-05T02:54:54.657Z,99.90
2018-10-05T02:57:22.173Z,99.90
2018-10-05T02:59:49.914Z,99.90
2018-10-05T03:02:28.347Z,99.90
2018-10-05T03:04:56.309Z,99.90
2018-10-05T03:07:24.511Z,99.90
2018-10-05T03:09:52.067Z,99.90
2018-10-05T03:12:19.685Z,99.90
2018-10-05T03:14:48.445Z,99.90
2018-10-05T03:17:16.003Z,99.90
2018-10-05T03:19:43.775Z,99.90
2018-10-05T03:22:11.635Z,99.90
2018-10-05T03:24:39.985Z,99.90
2018-10-05T03:27:07.597Z,99.90
2018-10-05T03:29:35.143Z,99.90
2018-10-05T03:32:02.699Z,99.90
2018-10-05T03:34:30.263Z,99.90
2018-10-05T03:36:57.817Z,99.90
2018-10-05T03:39:25.374Z,99.90
2018-10-05T03:41:52.923Z,99.90
2018-10-05T03:44:20.463Z,99.90
2018-10-05T03:46:48.028Z,99.90
2018-10-05T03:49:15.563Z,99.90
2018-10-05T03:51:43.709Z,99.90
2018-10-05T03:54:11.256Z,99.90
2018-10-05T03:56:38.785Z,99.90
2018-10-05T03:59:06.272Z,99.90
2018-10-05T04:01:33.840Z,99.90
2018-10-05T04:04:02.773Z,99.90
2018-10-05T04:06:30.297Z,99.90
2018-10-05T04:08:58.463Z,99.90
2018-10-05T04:11:25.994Z,99.90
2018-10-05T04:13:53.541Z,99.90
2018-10-05T04:16:21.038Z,99.90
2018-10-05T04:18:48.591Z,99.90
2018-10-05T04:21:16.121Z,99.90
2018-10-05T04:23:43.674Z,99.90
2018-10-05T04:26:11.220Z,99.90
2018-10-05T04:28:39.601Z,99.90
2018-10-05T04:31:07.138Z,99.90
2018-10-05T04:33:35.810Z,99.90
2018-10-05T04:36:03.354Z,99.90
2018-10-05T04:38:30.862Z,99.90
2018-10-05T04:40:58.416Z,99.90
2018-10-05T04:43:26.330Z,99.90
2018-10-05T04:45:53.832Z,99.90
2018-10-05T04:48:21.382Z,99.90
2018-10-05T04:50:48.940Z,99.90
2018-10-05T04:53:16.467Z,99.90
2018-10-05T04:55:43.989Z,99.90
2018-10-05T04:58:11.539Z,99.90
2018-10-05T05:00:40.522Z,99.90
2018-10-05T05:03:08.072Z,99.90
2018-10-05T05:05:35.880Z,99.90
2018-10-05T05:08:03.447Z,99.90
2018-10-05T05:10:31.156Z,99.90
2018-10-05T05:12:58.697Z,99.90
2018-10-05T05:15:26.228Z,99.90
2018-10-05T05:17:54.088Z,99.90
2018-10-05T05:20:22.577Z,99.90
2018-10-05T05:22:51.450Z,99.90
2018-10-05T05:25:19.078Z,99.90
2018-10-05T05:27:46.577Z,99.90
2018-10-05T05:30:14.174Z,99.90
2018-10-05T05:32:41.708Z,99.90
2018-10-05T05:35:09.240Z,99.90
2018-10-05T05:37:37.727Z,99.90
2018-10-05T05:40:06.908Z,99.90
2018-10-05T05:42:34.579Z,99.90
2018-10-05T05:45:02.196Z,99.90
2018-10-05T05:47:29.709Z,99.90
2018-10-05T05:49:57.243Z,99.90
2018-10-05T05:52:25.651Z,99.90
2018-10-05T05:54:53.196Z,99.90
2018-10-05T05:57:21.655Z,99.90
2018-10-05T05:59:50.319Z,99.90
2018-10-05T06:02:17.887Z,99.90
2018-10-05T06:04:45.415Z,99.90
2018-10-05T06:07:12.920Z,99.90
2018-10-05T06:09:40.503Z,99.90
2018-10-05T06:12:08.057Z,99.90
2018-10-05T06:14:35.581Z,99.90
2018-10-05T06:17:03.193Z,99.90
2018-10-05T06:19:30.750Z,99.90
2018-10-05T06:21:58.439Z,99.90
2018-10-05T06:24:25.921Z,99.90
2018-10-05T06:26:53.617Z,99.90
2018-10-05T06:29:21.137Z,99.90
2018-10-05T06:31:48.693Z,99.90
2018-10-05T06:34:22.838Z,99.90
2018-10-05T06:36:50.388Z,99.90
2018-10-05T06:39:17.928Z,99.90
2018-10-05T06:41:45.536Z,99.90
2018-10-05T06:44:13.063Z,99.90
2018-10-05T06:46:40.635Z,99.90
2018-10-05T06:49:08.152Z,99.90
2018-10-05T06:51:35.983Z,99.90
2018-10-05T06:54:03.512Z,99.90
2018-10-05T06:56:31.067Z,99.90
2018-10-05T06:58:58.615Z,99.90
2018-10-05T07:01:26.143Z,99.90
2018-10-05T07:03:53.781Z,99.90
2018-10-05T07:06:21.420Z,99.90
2018-10-05T07:08:48.939Z,99.90
2018-10-05T07:11:16.594Z,99.90
2018-10-05T07:13:44.429Z,99.90
2018-10-05T07:16:12.013Z,99.90
2018-10-05T07:18:39.527Z,99.90
2018-10-05T07:21:07.459Z,99.90
2018-10-05T07:23:35.130Z,99.90
2018-10-05T07:26:02.719Z,99.90
2018-10-05T07:28:30.699Z,99.90
2018-10-05T07:30:58.660Z,99.90
2018-10-05T07:33:26.191Z,99.90
2018-10-05T07:35:53.737Z,99.90
2018-10-05T07:38:21.309Z,99.90
2018-10-05T07:40:48.829Z,99.90
2018-10-05T07:43:16.396Z,99.90
2018-10-05T07:45:43.986Z,99.90
2018-10-05T07:48:11.523Z,99.90
2018-10-05T07:50:39.035Z,99.90
2018-10-05T07:53:06.555Z,99.90
2018-10-05T07:55:34.120Z,99.90
2018-10-05T07:58:01.718Z,99.90
2018-10-05T08:00:29.256Z,99.90
2018-10-05T08:02:57.261Z,99.90
2018-10-05T08:05:24.813Z,99.90
2018-10-05T08:07:52.396Z,99.90
2018-10-05T08:10:19.949Z,99.90
2018-10-05T08:12:47.527Z,99.90
2018-10-05T08:15:15.069Z,99.90
2018-10-05T08:17:42.619Z,99.90
2018-10-05T08:20:10.225Z,99.90
2018-10-05T08:22:37.800Z,99.90
2018-10-05T08:25:05.441Z,99.90
2018-10-05T08:27:39.774Z,99.90
2018-10-05T08:30:07.384Z,99.90
2018-10-05T08:32:34.953Z,99.90
2018-10-05T08:35:02.714Z,99.90
2018-10-05T08:37:30.292Z,99.90
2018-10-05T08:39:57.926Z,99.90
2018-10-05T08:42:25.410Z,99.90
2018-10-05T08:44:53.088Z,99.90
2018-10-05T08:47:20.658Z,99.90
2018-10-05T08:49:48.243Z,99.90
2018-10-05T08:52:15.902Z,99.90
2018-10-05T08:54:43.395Z,99.90
2018-10-05T08:57:11.007Z,99.90
2018-10-05T08:59:38.626Z,99.90
2018-10-05T09:02:06.146Z,99.90
2018-10-05T09:04:33.713Z,99.90
2018-10-05T09:07:01.250Z,99.90
2018-10-05T09:09:28.854Z,99.90
2018-10-05T09:11:56.422Z,99.90
2018-10-05T09:14:24.004Z,99.90
2018-10-05T09:16:51.553Z,99.90
2018-10-05T09:19:19.095Z,99.90
2018-10-05T09:21:46.685Z,99.90
2018-10-05T09:24:14.369Z,99.90
2018-10-05T09:26:42.002Z,99.90
2018-10-05T09:29:09.532Z,99.90
2018-10-05T09:31:37.434Z,99.90
2018-10-05T09:34:05.004Z,99.90
2018-10-05T09:36:32.536Z,99.90
2018-10-05T09:39:00.345Z,99.90
2018-10-05T09:41:27.870Z,99.90
2018-10-05T09:43:55.375Z,99.90
2018-10-05T09:46:23.200Z,99.90
2018-10-05T09:48:50.784Z,99.90
2018-10-05T09:51:18.352Z,99.90
2018-10-05T09:53:46.032Z,99.90
2018-10-05T09:56:13.568Z,99.90
2018-10-05T09:58:41.102Z,99.90
2018-10-05T10:01:14.380Z,99.90
2018-10-05T10:03:41.890Z,99.90
2018-10-05T10:06:09.445Z,99.90
2018-10-05T10:08:37.092Z,99.90
2018-10-05T10:11:04.642Z,99.90
2018-10-05T10:13:32.239Z,99.90
2018-10-05T10:15:59.852Z,99.90
2018-10-05T10:18:27.361Z,99.90
2018-10-05T10:20:54.884Z,99.90
2018-10-05T10:23:22.414Z,99.90
2018-10-05T10:25:49.958Z,99.90
2018-10-05T10:28:17.629Z,99.90
2018-10-05T10:30:45.162Z,99.90
2018-10-05T10:33:12.720Z,99.90
2018-10-05T10:35:40.445Z,99.90
2018-10-05T10:38:07.974Z,99.90
2018-10-05T10:40:35.485Z,99.90
2018-10-05T10:43:03.019Z,99.90
2018-10-05T10:45:30.558Z,99.90
2018-10-05T10:47:58.096Z,99.90
2018-10-05T10:50:25.653Z,99.90
2018-10-05T10:52:53.254Z,99.90
2018-10-05T10:55:20.762Z,99.90
2018-10-05T10:57:48.315Z,99.90
2018-10-05T11:00:15.850Z,99.90
2018-10-05T11:02:43.458Z,99.90
2018-10-05T11:05:11.148Z,99.90
2018-10-05T11:07:38.737Z,99.90
2018-10-05T11:10:06.323Z,99.90
2018-10-05T11:12:34.103Z,99.90
2018-10-05T11:15:01.660Z,99.90
2018-10-05T11:17:29.184Z,99.90
2018-10-05T11:19:56.787Z,99.50
2018-10-05T11:22:24.443Z,99.10
2018-10-05T11:24:52.001Z,98.40
2018-10-05T11:27:19.559Z,97.70
2018-10-05T11:29:47.159Z,97.70
2018-10-05T11:32:14.881Z,97.30
2018-10-05T11:34:42.501Z,97.00
2018-10-05T11:37:10.033Z,96.50
2018-10-05T11:39:37.548Z,96.10
2018-10-05T11:42:05.080Z,95.50
2018-10-05T11:44:32.784Z,95.30
2018-10-05T11:47:00.557Z,95.10
2018-10-05T11:49:28.116Z,94.50
2018-10-05T11:51:55.653Z,94.40
2018-10-05T11:54:23.355Z,93.50
2018-10-05T11:56:50.903Z,93.40
2018-10-05T11:59:18.617Z,93.10
2018-10-05T12:01:46.128Z,93.00
2018-10-05T12:04:13.661Z,92.80
2018-10-05T12:06:41.532Z,92.10
2018-10-05T12:09:09.354Z,91.50
2018-10-05T12:11:37.470Z,91.30
2018-10-05T12:14:05.060Z,90.60
2018-10-05T12:16:32.590Z,90.60
2018-10-05T12:19:00.204Z,90.10
2018-10-05T12:21:27.772Z,89.20
2018-10-05T12:23:55.270Z,88.70
2018-10-05T12:26:22.837Z,87.20
2018-10-05T12:28:50.370Z,85.50
2018-10-05T12:31:17.904Z,85.20
2018-10-05T12:33:45.723Z,84.00
2018-10-05T12:36:13.449Z,84.10
2018-10-05T12:38:40.977Z,83.50
2018-10-05T12:41:08.491Z,82.20
2018-10-05T12:43:36.030Z,81.10
2018-10-05T12:46:03.593Z,80.10
2018-10-05T12:48:31.178Z,79.30
2018-10-05T12:50:58.813Z,78.80
2018-10-05T12:53:26.390Z,77.80
2018-10-05T12:55:53.897Z,77.20
2018-10-05T12:58:21.430Z,77.20
2018-10-05T13:00:48.964Z,76.50
2018-10-05T13:03:16.484Z,74.90
2018-10-05T13:05:44.020Z,75.00
2018-10-05T13:08:11.562Z,74.90
2018-10-05T13:10:39.194Z,74.90
2018-10-05T13:13:07.000Z,74.10
2018-10-05T13:15:34.582Z,72.80
2018-10-05T13:18:02.176Z,72.00
2018-10-05T13:20:29.696Z,71.20
2018-10-05T13:22:57.283Z,70.70
2018-10-05T13:25:24.858Z,69.50
2018-10-05T13:27:52.418Z,69.10
2018-10-05T13:30:19.980Z,69.10
2018-10-05T13:32:47.528Z,68.90
2018-10-05T13:35:15.094Z,68.20
2018-10-05T13:37:42.687Z,66.50
2018-10-05T13:40:10.208Z,65.90
2018-10-05T13:42:37.774Z,64.60
2018-10-05T13:45:05.396Z,64.60
2018-10-05T13:47:32.932Z,64.90
2018-10-05T13:50:00.726Z,65.30
2018-10-05T13:52:28.397Z,65.00
2018-10-05T13:54:55.954Z,64.20
2018-10-05T13:57:23.489Z,63.30
2018-10-05T13:59:51.020Z,62.10
2018-10-05T14:02:18.591Z,62.40
2018-10-05T14:04:46.136Z,61.90
2018-10-05T14:07:13.897Z,60.90
2018-10-05T14:09:41.396Z,60.10
2018-10-05T14:12:08.932Z,59.70
2018-10-05T14:14:36.660Z,59.90
2018-10-05T14:17:04.184Z,59.20
2018-10-05T14:19:31.694Z,59.50
2018-10-05T14:21:59.244Z,59.40
2018-10-05T14:24:26.836Z,59.20
2018-10-05T14:26:54.401Z,58.70
2018-10-05T14:29:22.006Z,58.80
2018-10-05T14:31:49.998Z,58.40
2018-10-05T14:34:17.537Z,58.00
2018-10-05T14:36:45.894Z,56.80
2018-10-05T14:39:13.448Z,58.30
2018-10-05T14:41:41.042Z,58.20
2018-10-05T14:44:08.579Z,58.00
2018-10-05T14:46:36.138Z,57.80
2018-10-05T14:49:03.652Z,58.40
2018-10-05T14:51:31.208Z,58.80
2018-10-05T14:53:58.714Z,58.20
2018-10-05T14:56:26.247Z,58.00
2018-10-05T14:58:53.787Z,57.50
2018-10-05T15:01:21.350Z,57.50
2018-10-05T15:03:48.895Z,57.20
2018-10-05T15:06:16.456Z,56.40
2018-10-05T15:08:44.022Z,56.20
2018-10-05T15:11:11.571Z,56.60
2018-10-05T15:13:39.110Z,56.60
2018-10-05T15:16:07.044Z,56.50
2018-10-05T15:18:34.588Z,56.40
2018-10-05T15:21:02.131Z,56.70
2018-10-05T15:23:29.663Z,57.10
2018-10-05T15:25:57.267Z,56.80
2018-10-05T15:28:25.121Z,56.70
2018-10-05T15:30:52.636Z,56.00
2018-10-05T15:33:20.143Z,55.70
2018-10-05T15:35:47.712Z,55.80
2018-10-05T15:38:15.220Z,56.20
2018-10-05T15:40:42.785Z,56.20
2018-10-05T15:43:10.427Z,56.00
2018-10-05T15:45:37.945Z,55.80
2018-10-05T15:48:05.547Z,55.70
2018-10-05T15:50:33.056Z,55.70
2018-10-05T15:53:00.674Z,55.80
2018-10-05T15:55:28.176Z,55.40
2018-10-05T15:57:55.726Z,55.30
2018-10-05T16:00:23.501Z,55.20
2018-10-05T16:02:51.043Z,55.20
2018-10-05T16:05:18.614Z,55.40
2018-10-05T16:07:46.386Z,55.40
2018-10-05T18:34:32.561Z,99.90
2018-10-05T18:37:00.264Z,99.90
2018-10-05T18:39:27.822Z,99.90
2018-10-05T18:41:55.352Z,99.90
2018-10-05T18:44:22.864Z,99.90
2018-10-05T18:46:50.547Z,99.90
2018-10-05T18:49:18.104Z,99.90
2018-10-05T18:51:45.674Z,99.90
2018-10-05T18:54:13.452Z,99.90
2018-10-05T18:56:52.311Z,99.90
2018-10-05T18:59:20.003Z,99.90
2018-10-05T19:01:47.562Z,99.90
2018-10-05T19:04:15.102Z,99.90
2018-10-05T19:06:42.621Z,99.90
2018-10-05T19:09:10.147Z,99.90
2018-10-05T19:11:37.918Z,99.90
2018-10-05T19:14:06.108Z,99.90
2018-10-05T19:16:34.058Z,99.90
2018-10-05T19:19:02.266Z,99.90
2018-10-05T19:21:30.572Z,99.90
2018-10-05T19:23:58.640Z,99.90
2018-10-05T19:26:26.529Z,99.90
2018-10-05T19:28:55.054Z,99.90
2018-10-05T19:31:22.919Z,99.90
2018-10-05T19:33:50.844Z,99.90
2018-10-05T19:36:18.968Z,99.90
2018-10-05T19:38:46.552Z,99.90
2018-10-05T19:41:14.580Z,99.90
2018-10-05T19:43:42.150Z,99.90
2018-10-05T19:46:09.828Z,99.90
2018-10-05T19:48:37.906Z,99.90
2018-10-05T19:51:05.503Z,99.90
2018-10-05T19:53:33.230Z,99.90
2018-10-05T19:56:00.977Z,99.90
2018-10-05T19:58:28.624Z,99.90
2018-10-05T20:00:56.189Z,99.90
2018-10-05T20:03:23.860Z,99.90
2018-10-05T20:05:51.406Z,99.90
2018-10-05T20:08:18.962Z,99.90
2018-10-05T20:10:46.761Z,99.90
2018-10-05T20:13:14.297Z,99.90
2018-10-05T20:15:41.857Z,99.90
2018-10-05T20:18:09.654Z,99.90
2018-10-05T20:20:37.148Z,99.90
2018-10-05T20:23:04.773Z,99.90
2018-10-05T20:25:32.362Z,99.90
2018-10-05T20:27:59.917Z,99.90
2018-10-05T20:30:27.458Z,99.90
2018-10-05T20:32:55.031Z,99.90
2018-10-05T20:35:22.554Z,99.90
2018-10-05T20:37:50.253Z,99.90
2018-10-05T20:40:17.659Z,99.90
2018-10-05T20:42:45.245Z,99.90
2018-10-05T20:45:12.765Z,99.90
2018-10-05T20:47:40.331Z,99.90
2018-10-05T20:50:07.895Z,99.90
2018-10-05T20:52:35.436Z,99.90
2018-10-05T20:55:03.217Z,99.90
2018-10-05T20:57:30.759Z,99.90
2018-10-05T20:59:58.287Z,99.90
2018-10-05T21:02:25.839Z,99.90
2018-10-05T21:04:53.378Z,99.90
2018-10-05T21:07:20.899Z,99.90
2018-10-05T21:09:48.508Z,99.90
2018-10-05T21:12:16.060Z,99.90
2018-10-05T21:14:43.619Z,99.90
2018-10-05T21:17:11.125Z,99.90
2018-10-05T21:19:38.635Z,99.90
2018-10-05T21:22:06.461Z,99.90
2018-10-05T21:24:33.966Z,99.90
2018-10-05T21:27:01.500Z,99.90
2018-10-05T21:29:29.026Z,99.90
2018-10-05T21:31:56.538Z,99.90
2018-10-05T21:34:24.070Z,99.90
2018-10-05T21:36:51.800Z,99.90
2018-10-05T21:39:19.288Z,99.90
2018-10-05T21:41:46.816Z,99.90
2018-10-05T21:44:14.390Z,99.90
2018-10-05T21:46:42.242Z,99.90
2018-10-05T21:49:09.763Z,99.90
2018-10-05T21:51:37.308Z,99.90
2018-10-05T21:54:05.128Z,99.90
2018-10-05T21:56:32.690Z,99.90
2018-10-05T21:59:00.276Z,99.90
2018-10-05T22:01:28.304Z,99.90
2018-10-05T22:03:55.836Z,99.90
2018-10-05T22:06:23.406Z,99.90
2018-10-05T22:08:50.934Z,99.90
2018-10-05T22:11:18.462Z,99.90
2018-10-05T22:13:46.042Z,99.90
2018-10-05T22:16:13.567Z,99.90
2018-10-05T22:18:41.148Z,99.90
2018-10-05T22:21:09.409Z,99.90
2018-10-05T22:23:36.958Z,99.90
2018-10-05T22:26:04.780Z,99.90
2018-10-05T22:28:32.323Z,99.90
2018-10-05T22:30:59.861Z,99.90
2018-10-05T22:33:27.414Z,99.90
2018-10-05T22:35:54.951Z,99.90
2018-10-05T22:38:22.520Z,99.90
2018-10-05T22:40:50.032Z,99.90
2018-10-05T22:43:17.840Z,99.90
2018-10-05T22:45:45.369Z,99.90
2018-10-05T22:48:12.882Z,99.90
2018-10-05T22:50:40.717Z,99.90
2018-10-05T22:53:08.262Z,99.90
2018-10-05T22:55:35.787Z,99.90
2018-10-05T22:58:03.319Z,99.90
2018-10-05T23:00:30.882Z,99.90
2018-10-05T23:02:58.398Z,99.90
2018-10-05T23:05:25.980Z,99.90
2018-10-05T23:07:53.510Z,99.90
2018-10-05T23:10:21.080Z,99.90
2018-10-05T23:12:48.590Z,99.90
2018-10-05T23:15:16.110Z,99.90
2018-10-05T23:17:43.660Z,99.90
2018-10-05T23:20:11.178Z,99.90
2018-10-05T23:22:38.680Z,99.90
2018-10-05T23:25:06.300Z,99.90
2018-10-05T23:27:33.811Z,99.90
2018-10-05T23:30:01.301Z,99.90
2018-10-05T23:32:28.868Z,99.90
2018-10-05T23:34:56.407Z,99.90
2018-10-05T23:37:23.927Z,99.90
2018-10-05T23:39:51.454Z,99.90
2018-10-05T23:42:18.994Z,99.90
2018-10-05T23:44:46.515Z,99.90
2018-10-05T23:47:14.094Z,99.90
2018-10-05T23:49:41.593Z,99.90
2018-10-05T23:52:20.510Z,99.90
2018-10-05T23:54:48.038Z,99.90
2018-10-05T23:57:15.531Z,99.90
2018-10-05T23:59:43.068Z,99.90
